Search for airport 
image banner adimage banner adimage banner ad
image banner ad

IA31 - Beeds Lake

Located in Hampton, United States

ICAO - IA31, IATA -

Data provided by Airmate  

General information

Coordinates: N42°45'60" W93°14'46"
Elevation is 1148 feet MSL.
Magnetic variation is 03° East
View others Airports in Iowa

Operational data

Special qualification required
Current time UTC:
Current local time:
Weather at : KIFA - Iowa Falls Muni ( 33 km )
METAR: KIFA 181655Z AUTO 06004KT 10SM CLR 29/14 A2987 RMK AO2 T02850135
View NOTAMs / SUP AIP / TFR affecting this airport [VIEW]
Communications frequencies: [VIEW]

Runways:

RWY identifierQFULength (ft)Width (ft)SurfaceLDA (ft)
112390170GRASS
292390170GRASS

Airport contact information

Address: Hampton United States

Satellite view of IA31